Time,TemperatureF,DewpointF,PressureIn,WindDirection,WindDirectionDegrees,WindSpeedMPH,WindSpeedGustMPH,Humidity,HourlyPrecipIn,Conditions,Clouds,dailyrainin,SolarRadiationWatts/m^2,SoftwareType,DateUTC
2015-09-04 00:01:00,66.9,65.7,29.92,ESE,121,1.0,2.0,96,0.00,,,0.00,0,Wunderground v.1.15,2015-09-04 04:01:00,
2015-09-04 00:07:00,66.9,65.7,29.91,SSE,165,2.0,6.0,96,0.00,,,0.00,0,Wunderground v.1.15,2015-09-04 04:07:00,
2015-09-04 00:13:00,67.0,65.8,29.92,SE,132,2.0,6.0,96,0.00,,,0.00,0,Wunderground v.1.15,2015-09-04 04:13:00,
2015-09-04 00:19:00,67.0,65.8,29.92,SE,137,1.0,1.0,96,0.00,,,0.00,0,Wunderground v.1.15,2015-09-04 04:19:00,
2015-09-04 00:25:00,67.1,65.9,29.93,SSE,152,0.0,1.0,96,0.00,,,0.00,0,Wunderground v.1.15,2015-09-04 04:25:00,
2015-09-04 00:31:00,67.2,66.0,29.93,SSE,162,1.0,11.0,96,0.00,,,0.00,0,Wunderground v.1.15,2015-09-04 04:31:00,
2015-09-04 00:37:00,67.2,66.0,29.93,ESE,122,1.0,1.0,96,0.00,,,0.00,0,Wunderground v.1.15,2015-09-04 04:37:00,
2015-09-04 00:43:00,67.3,66.1,29.93,ESE,113,0.0,11.0,96,0.00,,,0.00,0,Wunderground v.1.15,2015-09-04 04:43:00,
2015-09-04 00:49:00,67.3,66.1,29.93,SE,137,0.0,11.0,96,0.00,,,0.00,0,Wunderground v.1.15,2015-09-04 04:49:00,
2015-09-04 00:55:00,67.3,66.1,29.93,SSE,157,0.0,11.0,96,0.00,,,0.00,0,Wunderground v.1.15,2015-09-04 04:55:00,
2015-09-04 01:01:00,67.4,66.2,29.93,SSE,155,0.0,0.0,96,0.00,,,0.00,0,Wunderground v.1.15,2015-09-04 05:01:00,
2015-09-04 01:07:00,67.5,66.3,29.93,SSE,160,2.0,2.0,96,0.00,,,0.00,0,Wunderground v.1.15,2015-09-04 05:07:00,
2015-09-04 01:13:00,67.6,66.4,29.93,South,172,1.0,4.0,96,0.00,,,0.00,0,Wunderground v.1.15,2015-09-04 05:13:00,
2015-09-04 01:19:00,67.6,66.4,29.93,South,171,2.0,4.0,96,0.00,,,0.00,0,Wunderground v.1.15,2015-09-04 05:19:00,
2015-09-04 01:25:00,67.7,66.8,29.93,SSE,167,2.0,4.0,97,0.00,,,0.00,0,Wunderground v.1.15,2015-09-04 05:25:00,
2015-09-04 01:31:00,67.8,66.9,29.92,South,171,3.0,8.0,97,0.00,,,0.00,0,Wunderground v.1.15,2015-09-04 05:31:00,
2015-09-04 01:37:00,67.9,67.0,29.92,South,172,4.0,8.0,97,0.00,,,0.00,0,Wunderground v.1.15,2015-09-04 05:37:00,
2015-09-04 01:43:00,67.9,67.0,29.92,SE,133,5.0,9.0,97,0.00,,,0.00,0,Wunderground v.1.15,2015-09-04 05:43:00,
2015-09-04 01:49:00,68.0,66.8,29.92,SSE,160,5.0,8.0,96,0.00,,,0.00,0,Wunderground v.1.15,2015-09-04 05:49:00,
2015-09-04 01:55:00,68.0,66.8,29.92,SSE,167,4.0,8.0,96,0.00,,,0.00,0,Wunderground v.1.15,2015-09-04 05:55:00,
2015-09-04 02:01:00,68.0,66.8,29.92,SSE,149,2.0,4.0,96,0.00,,,0.00,0,Wunderground v.1.15,2015-09-04 06:01:00,
2015-09-04 02:07:00,68.0,66.8,29.92,SE,146,3.0,3.0,96,0.00,,,0.00,0,Wunderground v.1.15,2015-09-04 06:07:00,
2015-09-04 02:13:00,68.1,66.9,29.92,SE,134,5.0,8.0,96,0.00,,,0.00,0,Wunderground v.1.15,2015-09-04 06:13:00,
2015-09-04 02:19:00,68.1,67.2,29.92,SSE,154,5.0,9.0,97,0.00,,,0.00,0,Wunderground v.1.15,2015-09-04 06:19:00,
2015-09-04 02:25:00,68.1,67.2,29.92,SSE,148,4.0,9.0,97,0.00,,,0.00,0,Wunderground v.1.15,2015-09-04 06:25:00,
2015-09-04 02:31:00,68.1,67.2,29.92,SSE,168,3.0,7.0,97,0.00,,,0.00,0,Wunderground v.1.15,2015-09-04 06:31:00,
2015-09-04 02:37:00,68.2,67.3,29.92,SSE,165,4.0,4.0,97,0.00,,,0.00,0,Wunderground v.1.15,2015-09-04 06:37:00,
2015-09-04 02:43:00,68.3,67.4,29.92,SSE,156,4.0,9.0,97,0.00,,,0.00,0,Wunderground v.1.15,2015-09-04 06:43:00,
2015-09-04 02:49:00,68.3,67.4,29.92,SSE,167,3.0,7.0,97,0.00,,,0.00,0,Wunderground v.1.15,2015-09-04 06:49:00,
2015-09-04 02:55:00,68.3,67.4,29.92,SSE,162,3.0,7.0,97,0.00,,,0.00,0,Wunderground v.1.15,2015-09-04 06:55:00,
2015-09-04 03:01:00,68.4,67.5,29.92,SE,126,4.0,8.0,97,0.00,,,0.00,0,Wunderground v.1.15,2015-09-04 07:01:00,
2015-09-04 03:07:00,68.5,67.6,29.93,South,175,3.0,3.0,97,0.00,,,0.00,0,Wunderground v.1.15,2015-09-04 07:07:00,
2015-09-04 03:13:00,68.6,67.7,29.93,SE,146,3.0,8.0,97,0.00,,,0.00,0,Wunderground v.1.15,2015-09-04 07:13:00,
2015-09-04 03:19:00,68.6,67.7,29.93,South,184,5.0,5.0,97,0.00,,,0.00,0,Wunderground v.1.15,2015-09-04 07:19:00,
2015-09-04 03:25:00,68.7,67.8,29.93,SSE,152,4.0,7.0,97,0.00,,,0.00,0,Wunderground v.1.15,2015-09-04 07:25:00,
2015-09-04 03:31:00,68.8,67.9,29.93,SSE,165,4.0,10.0,97,0.00,,,0.00,0,Wunderground v.1.15,2015-09-04 07:31:00,
2015-09-04 03:37:00,68.8,67.9,29.93,SSE,164,3.0,3.0,97,0.00,,,0.00,0,Wunderground v.1.15,2015-09-04 07:37:00,
2015-09-04 03:43:00,68.8,67.9,29.93,SSE,159,2.0,10.0,97,0.00,,,0.00,0,Wunderground v.1.15,2015-09-04 07:43:00,
2015-09-04 03:49:00,68.9,68.0,29.93,SSE,157,2.0,2.0,97,0.00,,,0.00,0,Wunderground v.1.15,2015-09-04 07:49:00,
2015-09-04 03:55:00,68.9,68.0,29.93,SE,140,2.0,10.0,97,0.00,,,0.00,0,Wunderground v.1.15,2015-09-04 07:55:00,
2015-09-04 04:01:00,68.9,68.0,29.93,South,177,2.0,6.0,97,0.00,,,0.00,0,Wunderground v.1.15,2015-09-04 08:01:00,
2015-09-04 04:07:00,68.9,68.0,29.93,SSE,166,2.0,5.0,97,0.00,,,0.00,0,Wunderground v.1.15,2015-09-04 08:07:00,
2015-09-04 04:13:00,68.9,68.0,29.93,SE,125,4.0,9.0,97,0.00,,,0.00,0,Wunderground v.1.15,2015-09-04 08:13:00,
2015-09-04 04:19:00,68.9,68.0,29.93,SSE,163,4.0,4.0,97,0.00,,,0.00,0,Wunderground v.1.15,2015-09-04 08:19:00,
2015-09-04 04:25:00,68.9,68.0,29.93,SSE,153,3.0,5.0,97,0.00,,,0.00,0,Wunderground v.1.15,2015-09-04 08:25:00,
2015-09-04 04:31:00,68.9,68.0,29.93,SSE,157,2.0,11.0,97,0.00,,,0.00,0,Wunderground v.1.15,2015-09-04 08:31:00,
2015-09-04 04:39:00,68.9,68.0,29.93,SSE,165,4.0,11.0,97,0.00,,,0.00,0,Wunderground v.1.15,2015-09-04 08:39:00,
2015-09-04 04:45:00,68.9,68.0,29.93,SE,144,4.0,11.0,97,0.00,,,0.00,0,Wunderground v.1.15,2015-09-04 08:45:00,
2015-09-04 04:51:00,68.8,67.9,29.93,South,181,3.0,11.0,97,0.00,,,0.00,0,Wunderground v.1.15,2015-09-04 08:51:00,
2015-09-04 04:57:00,68.7,67.5,29.93,SSE,156,3.0,3.0,96,0.00,,,0.00,0,Wunderground v.1.15,2015-09-04 08:57:00,
2015-09-04 05:03:00,68.6,67.7,29.93,South,179,3.0,6.0,97,0.00,,,0.00,0,Wunderground v.1.15,2015-09-04 09:03:00,
2015-09-04 05:09:00,68.5,67.6,29.93,SSE,153,4.0,8.0,97,0.00,,,0.00,0,Wunderground v.1.15,2015-09-04 09:09:00,
2015-09-04 05:15:00,68.4,67.5,29.93,South,178,4.0,8.0,97,0.00,,,0.00,0,Wunderground v.1.15,2015-09-04 09:15:00,
2015-09-04 05:21:00,68.4,67.2,29.93,SSW,200,3.0,4.0,96,0.00,,,0.00,0,Wunderground v.1.15,2015-09-04 09:21:00,
2015-09-04 05:27:00,68.3,67.1,29.93,SSE,159,3.0,3.0,96,0.00,,,0.00,0,Wunderground v.1.15,2015-09-04 09:27:00,
2015-09-04 05:33:00,68.3,67.1,29.93,South,179,3.0,9.0,96,0.00,,,0.00,0,Wunderground v.1.15,2015-09-04 09:33:00,
2015-09-04 05:39:00,68.2,67.0,29.94,SE,132,2.0,9.0,96,0.00,,,0.00,0,Wunderground v.1.15,2015-09-04 09:39:00,
2015-09-04 05:45:00,68.1,66.9,29.93,SSE,153,3.0,9.0,96,0.00,,,0.00,0,Wunderground v.1.15,2015-09-04 09:45:00,
2015-09-04 05:51:00,68.1,66.9,29.94,South,185,3.0,9.0,96,0.00,,,0.00,0,Wunderground v.1.15,2015-09-04 09:51:00,
2015-09-04 05:57:00,68.0,66.8,29.93,South,178,1.0,2.0,96,0.00,,,0.00,0,Wunderground v.1.15,2015-09-04 09:57:00,
2015-09-04 06:03:00,67.9,66.7,29.93,SSE,163,1.0,2.0,96,0.00,,,0.00,0,Wunderground v.1.15,2015-09-04 10:03:00,
2015-09-04 06:09:00,67.9,66.7,29.93,South,175,0.0,1.0,96,0.00,,,0.00,0,Wunderground v.1.15,2015-09-04 10:09:00,
2015-09-04 06:21:00,67.8,66.6,29.94,SSE,155,0.0,0.0,96,0.00,,,0.00,0,Wunderground v.1.15,2015-09-04 10:21:00,
2015-09-04 06:27:00,67.7,66.5,29.94,South,171,1.0,4.0,96,0.00,,,0.00,0,Wunderground v.1.15,2015-09-04 10:27:00,
2015-09-04 06:31:00,67.7,66.5,29.95,SSE,168,1.0,10.0,96,0.00,,,0.00,0,Wunderground v.1.15,2015-09-04 10:31:00,
2015-09-04 06:41:00,67.6,66.4,29.95,SSW,213,0.0,10.0,96,0.00,,,0.00,0,Wunderground v.1.15,2015-09-04 10:41:00,
2015-09-04 06:47:00,67.6,66.4,29.95,SSW,213,0.0,10.0,96,0.00,,,0.00,0,Wunderground v.1.15,2015-09-04 10:47:00,
2015-09-04 06:51:00,67.5,66.3,29.95,SSW,213,0.0,10.0,96,0.00,,,0.00,0,Wunderground v.1.15,2015-09-04 10:51:00,
2015-09-04 06:57:00,67.5,66.3,29.95,SSW,213,0.0,0.0,96,0.00,,,0.00,0,Wunderground v.1.15,2015-09-04 10:57:00,
2015-09-04 07:03:00,67.3,66.1,29.95,SSW,213,0.0,0.0,96,0.00,,,0.00,5,Wunderground v.1.15,2015-09-04 11:03:00,
2015-09-04 07:09:00,67.2,66.0,29.96,SSW,213,0.0,0.0,96,0.00,,,0.00,9,Wunderground v.1.15,2015-09-04 11:09:00,
2015-09-04 07:15:00,67.2,66.0,29.95,SSW,213,0.0,0.0,96,0.00,,,0.00,12,Wunderground v.1.15,2015-09-04 11:15:00,
2015-09-04 07:21:00,67.2,66.0,29.96,SSW,213,0.0,0.0,96,0.00,,,0.00,14,Wunderground v.1.15,2015-09-04 11:21:00,
2015-09-04 07:27:00,67.3,66.1,29.96,SSW,213,0.0,0.0,96,0.00,,,0.00,16,Wunderground v.1.15,2015-09-04 11:27:00,
2015-09-04 07:33:00,67.4,66.2,29.96,SSW,213,0.0,7.0,96,0.00,,,0.00,21,Wunderground v.1.15,2015-09-04 11:33:00,
2015-09-04 07:39:00,67.3,66.1,29.96,SSW,213,0.0,7.0,96,0.00,,,0.00,26,Wunderground v.1.15,2015-09-04 11:39:00,
2015-09-04 07:45:00,67.2,66.0,29.97,SSW,213,0.0,7.0,96,0.00,,,0.00,26,Wunderground v.1.15,2015-09-04 11:45:00,
2015-09-04 07:51:00,67.3,66.1,29.97,SSW,213,0.0,7.0,96,0.00,,,0.00,40,Wunderground v.1.15,2015-09-04 11:51:00,
2015-09-04 07:57:00,67.3,66.1,29.97,SSW,213,0.0,0.0,96,0.00,,,0.00,76,Wunderground v.1.15,2015-09-04 11:57:00,
2015-09-04 08:03:00,67.5,66.6,29.97,SSW,213,0.0,0.0,97,0.00,,,0.00,97,Wunderground v.1.15,2015-09-04 12:03:00,
2015-09-04 08:09:00,67.7,66.8,29.97,SSW,213,0.0,0.0,97,0.00,,,0.00,91,Wunderground v.1.15,2015-09-04 12:09:00,
2015-09-04 08:15:00,67.9,67.0,29.97,SSW,213,0.0,0.0,97,0.00,,,0.00,77,Wunderground v.1.15,2015-09-04 12:15:00,
2015-09-04 08:21:00,68.0,67.1,29.98,SSW,213,0.0,0.0,97,0.00,,,0.00,54,Wunderground v.1.15,2015-09-04 12:21:00,
2015-09-04 08:27:00,68.0,66.8,29.98,SSW,212,0.0,0.0,96,0.00,,,0.00,84,Wunderground v.1.15,2015-09-04 12:27:00,
2015-09-04 08:33:00,68.0,66.8,29.97,South,187,0.0,0.0,96,0.00,,,0.00,100,Wunderground v.1.15,2015-09-04 12:33:00,
2015-09-04 08:39:00,68.1,66.9,29.98,South,186,1.0,2.0,96,0.00,,,0.00,105,Wunderground v.1.15,2015-09-04 12:39:00,
2015-09-04 08:45:00,68.2,67.0,29.98,SSW,192,1.0,3.0,96,0.00,,,0.00,86,Wunderground v.1.15,2015-09-04 12:45:00,
2015-09-04 08:51:00,68.3,67.1,29.98,SSE,163,1.0,2.0,96,0.00,,,0.00,111,Wunderground v.1.15,2015-09-04 12:51:00,
2015-09-04 08:57:00,68.4,67.2,29.99,SSE,162,0.0,0.0,96,0.00,,,0.00,79,Wunderground v.1.15,2015-09-04 12:57:00,
2015-09-04 09:03:00,68.5,67.3,29.99,SSE,148,1.0,1.0,96,0.00,,,0.00,93,Wunderground v.1.15,2015-09-04 13:03:00,
2015-09-04 09:09:00,68.5,67.3,29.99,SSE,153,2.0,2.0,96,0.00,,,0.00,123,Wunderground v.1.15,2015-09-04 13:09:00,
2015-09-04 09:15:00,68.5,67.0,29.99,SE,141,2.0,2.0,95,0.00,,,0.00,144,Wunderground v.1.15,2015-09-04 13:15:00,
2015-09-04 09:21:00,68.7,67.2,29.99,South,170,1.0,5.0,95,0.00,,,0.00,121,Wunderground v.1.15,2015-09-04 13:21:00,
2015-09-04 09:27:00,68.8,67.3,29.99,South,177,2.0,2.0,95,0.00,,,0.00,107,Wunderground v.1.15,2015-09-04 13:27:00,
2015-09-04 09:33:00,68.9,67.4,29.99,SE,144,1.0,4.0,95,0.00,,,0.00,120,Wunderground v.1.15,2015-09-04 13:33:00,
2015-09-04 09:39:00,68.9,67.4,29.99,SE,130,2.0,2.0,95,0.00,,,0.00,185,Wunderground v.1.15,2015-09-04 13:39:00,
2015-09-04 09:45:00,69.0,67.2,29.99,South,184,1.0,2.0,94,0.00,,,0.00,142,Wunderground v.1.15,2015-09-04 13:45:00,
2015-09-04 09:51:00,69.2,67.4,29.99,South,184,0.0,2.0,94,0.00,,,0.00,134,Wunderground v.1.15,2015-09-04 13:51:00,
2015-09-04 09:57:00,69.3,67.5,29.99,South,175,0.0,0.0,94,0.00,,,0.00,172,Wunderground v.1.15,2015-09-04 13:57:00,
2015-09-04 10:03:00,69.5,67.7,29.99,South,175,1.0,1.0,94,0.00,,,0.00,207,Wunderground v.1.15,2015-09-04 14:03:00,